Productos aeronáuticos

  • SIGMET
  • METAR / SPECI
  • TAF
  • AIREP
  • Aviso de aeródromo
  • Pronárea
  • Carta superficie

Mensajes METAR de la última hora

SUAA 251200Z 04010KT CAVOK 19/16 Q1018
SUDU 251200Z 04008KT 9999 FEW023 BKN080 19/16 Q1019
SULS 251200Z 05006KT CAVOK 20/16 Q1019
SUMU 251200Z 02007KT CAVOK 19/16 Q1018 NOSIG
SUSO 251200Z 04015G25KT CAVOK 20/16 Q1017

Mensajes METAR de la última hora - Internacionales


Argentina
SAAR 251200Z 02012KT CAVOK 21/16 Q1012
SABE 251200Z 06003KT CAVOK 18/16 Q1016
SACO 251200Z 09004KT 9999 FEW018 14/13 Q1009
SAEZ 251200Z 02006KT CAVOK 20/17 Q1015
SAME 251200Z 00000KT 4000 BR FU NSC 07/05 Q1009
SAME 251120Z 00000KT 4000 FU BR NSC 07/05 Q1009
Bolivia
SLLP 251200Z 03004KT 9999 NSC 04/M06 Q1039
Brasil
SBBR 251200Z 15013KT CAVOK 17/09 Q1026
SBFI 251200Z 09008KT CAVOK 17/14 Q1023
SBFL 251200Z 35006KT 9999 BKN009 SCT020 21/19 Q1027
SBGR 251200Z 09003KT 9999 SCT013 17/14 Q1029
SBPA 251200Z 26003KT CAVOK 18/17 Q1025
SBRJ 251200Z 26004KT 9999 FEW015 23/19 Q1026
SBSP 251200Z 09005KT 9999 FEW029 17/12 Q1029
Colombia
SKBO 251200Z 04004KT 9999 VCSH SCT020 SCT200 12/10 A3037 RMK VCSH/SE
Chile
SCCI 251200Z 29008KT CAVOK M07/M09 Q1022 NOSIG
SCEL 251200Z 09003KT 030V200 6000 FEW150 BKN200 09/07 Q1011 NOSIG
Ecuador
SEQM 251200Z 12004KT 6000 BCFG SCT008 BKN030 11/10 Q1027 BECMG AT1240 8000 RMK A3034
EEUU
KMIA 251153Z 14003KT 10SM FEW025 SCT250 29/23 A3011 RMK AO2 SLP197 T02890228 10289 20278 53015
KDCA 251152Z 33007KT 10SM BKN085 BKN250 25/16 A3003 RMK AO2 SLP168 ACC ALQDS T02500156 10261 20222 51018
KIAD 251152Z 24003KT 10SM BKN085 BKN250 22/16 A3004 RMK AO2 SLP169 ACC ALQDS T02220156 10222 20167 53019
KJFK 251151Z 00000KT 10SM SCT110 BKN250 23/16 A3000 RMK AO2 SLP157 70021 T02330156 10244 20206 51016
KLGA 251151Z 00000KT 10SM FEW029 SCT090 SCT110 BKN190 BKN250 23/16 A2998 RMK AO2 SLP153 70018 T02280156 10233 20211 51017
España
LEBL 251200Z 16008KT 130V190 9999 FEW020 BKN030 FEW035TCU 27/22 Q1018 NOSIG
LEMD 251200Z 14005KT CAVOK 33/08 Q1015 NOSIG
LEBL 251130Z 16008KT 140V200 9999 FEW020 BKN030 27/22 Q1018 NOSIG
LEMD 251130Z 13007KT 080V170 CAVOK 33/10 Q1016 NOSIG
Francia
LFPO 251200Z 25011KT 220V280 9999 BKN046 26/13 Q1016 NOSIG
LFPO 251130Z 26010KT 230V290 9999 SCT043 SCT066 25/12 Q1016 NOSIG
Inglaterra
EGLL 251150Z AUTO 23012KT 9999 SCT024 BKN041 21/13 Q1012
EGLL 251120Z AUTO 23012KT 200V260 9999 BKN023 OVC049 20/13 Q1012
Panamá
MPTO 251200Z 00000KT 8000 FEW018CB SCT080 24/24 Q1012 TEMPO TS
Paraguay
SGAS 251200Z 06008KT CAVOK 20/14 Q1018
SGAS 251130Z 06008KT CAVOK 20/14 Q1018
Venezuela
SVMI 251200Z 29005KT 9999 FEW016 28/20 Q1013

* Datos extraidos del Text DataServer de la NOAA (NOAA TEXT DATA SERVER)

Instituto Uruguayo de Meteorología

Dr. Javier Barrios Amorín 1488 - CP 11200
Mesa Central (598) 1895

Montevideo - Uruguay